Almeria, Spain

8:20 PM CEST on October 01, 2014 (GMT +0200)
IALMERIA2 | Change Station
CLOSE
Current Station
Personal Weather Station
Location: Almeria, ALMERIA
Elevation: 50 ft
Nearby Weather Stations

Elev 50 ft 36.85 °N, 2.38 °W | Updated 20 minutes ago

Partly Cloudy
Partly Cloudy
77.5 °F
Feels Like 79 °F
N
7.0
Wind Variable Wind from East
Gusts 10.0 mph

Today
High -- | Low -- °F
--% Chance of Precip.
Yesterday
High -- | Low -- °F
Precip. -- in
8:04 AM 7:53 PM
Waxing Crescent, 50% visible
Pressure 30.12 in
Visibility 6.2 miles
Clouds Few 1000 ft
Few 2000 ft
Heat Index 79 °F
Dew Point 52 °F
Humidity 41%
Rainfall 0.00 in
Snow Depth Not available.
UV 0 out of 12
Pollen Not available.
Air Quality Not available.
Flu Activity Not available.
METAR LEAM 301830Z 08011KT 9999 FEW010 FEW020TCU 26/18 Q1020

More Conditions Fewer Conditions

Pressure 30.12 in
Visibility 6.2 miles
Clouds Few 1000 ft
Few 2000 ft
Heat Index 79 °F
Dew Point 52 °F
Humidity 41%
Rainfall 0.00 in
Snow Depth Not available.
UV 0 out of 12
Pollen Not available.
Air Quality Not available.
Flu Activity Not available.
METAR LEAM 301830Z 08011KT 9999 FEW010 FEW020TCU 26/18 Q1020

More Conditions Fewer Conditions

10-Day Weather Forecast

Almanac

Astronomy

Oct. 01, 2014 Rise Set
Actual Time 8:04 AM CEST 7:53 PM CEST
Civil Twilight 7:38 AM CEST 8:19 PM CEST
Nautical Twilight 7:08 AM CEST 8:49 PM CEST
Astronomical Twilight 6:38 AM CEST 9:19 PM CEST
Moon 2:46 PM CEST 12:17 AM CEST
Length of Visible Light 12h 40m
Length of Day
11h 48m
Tomorrow will be 2m 19s shorter.
Waxing Crescent, 50% of the Moon is Illuminated
Today
Waxing Crescent
Oct 1
First Quarter
Oct 8
Full
Oct 15
Last Quarter
Oct 23
New

Today's Extremes

Country Highs Country Lows

Community

WunderPhotos

Upload Photos

1,758,008 photos uploaded!

WunderBlogs® & News

By Dr. Jeff Masters
Director of Meteorology, Weather Underground
By Kari Strenfel
Meteorologist, Weather Underground
By Christopher C. Burt
Weather Historian, Weather Underground
October 1, 2014
October 1, 2014
October 1, 2014

Nearby

Snow Depth

Not available.

Earthquake Activity

City Distance Mag. Time & Date
No recent earthquake activity has been reported nearby.
Minimum magnitude displayed is 2.5.

Coastal Water Temperatures

Place Temperature
No Stations Reporting

Nearby Weather Stations